Time;durP1;ratioP1;P1;durP2;ratioP2;P2;SDS_P1;SDS_P2;PMS_P1;PMS_P2;Temp;Humidity;BMP_temperature;BMP_pressure;BME280_temperature;BME280_humidity;BME280_pressure;Samples;Min_cycle;Max_cycle;Signal;HPM_P1;HPM_P2
2022/11/13 00:00:29;;;;;;;26.02;18.75;;;12.80;84.60;;;;;;6184296;23;20035;-73
2022/11/13 00:02:54;;;;;;;27.73;19.27;;;12.70;84.70;;;;;;6184593;23;20001;-72
2022/11/13 00:05:20;;;;;;;29.65;19.70;;;12.70;84.90;;;;;;6185161;23;20095;-72
2022/11/13 00:07:46;;;;;;;30.83;21.23;;;12.70;84.80;;;;;;6186775;23;20316;-72
2022/11/13 00:10:11;;;;;;;30.08;23.73;;;12.70;84.60;;;;;;6186083;23;20005;-73
2022/11/13 00:12:37;;;;;;;33.42;24.40;;;12.80;85.10;;;;;;6184640;23;20063;-72
2022/11/13 00:15:04;;;;;;;35.08;23.27;;;12.80;84.80;;;;;;6186151;23;20068;-72
2022/11/13 00:17:29;;;;;;;33.38;23.63;;;12.80;84.80;;;;;;6184193;23;20009;-72
2022/11/13 00:19:55;;;;;;;36.08;23.65;;;12.80;84.60;;;;;;6184229;23;20457;-72
2022/11/13 00:22:21;;;;;;;40.40;24.98;;;12.90;84.50;;;;;;6185590;23;20001;-71
2022/11/13 00:24:47;;;;;;;31.08;22.20;;;12.90;84.40;;;;;;6185587;23;20047;-71
2022/11/13 00:27:13;;;;;;;28.80;20.98;;;12.90;84.30;;;;;;6185615;23;20415;-71
2022/11/13 00:29:39;;;;;;;27.10;19.80;;;12.80;84.10;;;;;;6183781;23;20028;-73
2022/11/13 00:32:05;;;;;;;29.40;19.75;;;12.80;84.30;;;;;;6183904;23;20017;-73
2022/11/13 00:34:31;;;;;;;26.80;19.63;;;12.80;84.50;;;;;;6183833;23;20001;-70
2022/11/13 00:36:56;;;;;;;24.88;18.73;;;12.80;84.40;;;;;;6183746;23;20013;-72
2022/11/13 00:39:22;;;;;;;25.25;18.73;;;12.70;84.40;;;;;;6185318;23;20005;-72
2022/11/13 00:41:48;;;;;;;26.83;18.85;;;12.70;84.70;;;;;;6185342;23;20059;-71
2022/11/13 00:44:13;;;;;;;24.13;18.02;;;12.60;84.80;;;;;;6185332;23;19996;-71
2022/11/13 00:46:39;;;;;;;29.10;19.10;;;12.70;85.20;;;;;;6183819;23;20021;-72
2022/11/13 00:49:05;;;;;;;25.73;17.80;;;12.70;85.10;;;;;;6185390;23;19997;-72
2022/11/13 00:51:31;;;;;;;23.52;17.65;;;12.70;84.90;;;;;;6183656;23;20091;-72
2022/11/13 00:53:57;;;;;;;24.88;17.25;;;12.70;85.00;;;;;;6183698;23;20035;-72
2022/11/13 00:56:23;;;;;;;25.75;18.50;;;12.70;85.10;;;;;;6183559;23;20053;-72
2022/11/13 00:58:49;;;;;;;26.77;18.35;;;12.60;85.00;;;;;;6183733;23;20001;-71
2022/11/13 01:01:18;;;;;;;23.92;17.05;;;12.60;85.20;;;;;;6183532;23;20062;-72
2022/11/13 01:03:44;;;;;;;25.33;17.92;;;12.70;85.40;;;;;;6185148;23;20008;-73
2022/11/13 01:06:12;;;;;;;23.15;16.88;;;12.60;85.40;;;;;;6185633;23;20005;-71
2022/11/13 01:08:38;;;;;;;25.70;17.50;;;12.60;85.20;;;;;;6185505;23;20008;-72
2022/11/13 01:11:09;;;;;;;23.00;15.52;;;12.60;85.30;;;;;;6185096;23;20009;-73
2022/11/13 01:13:35;;;;;;;22.33;15.43;;;12.60;85.40;;;;;;6183267;23;20013;-72
2022/11/13 01:16:05;;;;;;;22.25;15.82;;;12.70;85.40;;;;;;6183315;23;20009;-71
2022/11/13 01:18:31;;;;;;;24.75;16.20;;;12.70;85.20;;;;;;6183240;23;20016;-71
2022/11/13 01:21:23;;;;;;;19.42;14.43;;;12.70;85.10;;;;;;6183283;23;20430;-73
2022/11/13 01:23:50;;;;;;;22.33;15.77;;;12.70;84.70;;;;;;6185201;23;20001;-71
2022/11/13 01:26:21;;;;;;;20.10;14.93;;;12.80;85.00;;;;;;6185205;23;20001;-73
2022/11/13 01:28:48;;;;;;;22.83;15.63;;;12.80;84.90;;;;;;6183397;23;20012;-71
2022/11/13 01:31:19;;;;;;;20.17;15.10;;;12.80;84.80;;;;;;6184893;23;20009;-70
2022/11/13 01:33:46;;;;;;;18.83;13.85;;;12.80;84.50;;;;;;6183318;23;20434;-73
2022/11/13 01:36:18;;;;;;;21.05;13.35;;;12.80;84.40;;;;;;6185122;23;20107;-72
2022/11/13 01:38:44;;;;;;;16.80;12.80;;;12.80;83.90;;;;;;6184971;23;20001;-72
2022/11/13 01:41:25;;;;;;;17.08;13.20;;;12.80;84.30;;;;;;6185091;23;20080;-72
2022/11/13 01:43:52;;;;;;;17.42;12.23;;;12.80;83.90;;;;;;6184781;23;20079;-71
2022/11/13 01:46:26;;;;;;;16.73;12.27;;;12.80;84.00;;;;;;6184794;23;20005;-71
2022/11/13 01:48:56;;;;;;;14.65;11.60;;;12.90;83.90;;;;;;6184778;23;20021;-72
2022/11/13 01:51:28;;;;;;;14.60;11.07;;;12.90;83.90;;;;;;6182910;23;20009;-72
2022/11/13 01:53:56;;;;;;;18.45;10.77;;;12.90;83.60;;;;;;6184752;23;20401;-71
2022/11/13 01:56:22;;;;;;;15.25;10.55;;;13.00;83.60;;;;;;6184952;23;20430;-72
2022/11/13 01:59:03;;;;;;;13.65;10.45;;;12.90;83.30;;;;;;6184548;23;20533;-73
2022/11/13 02:01:29;;;;;;;16.55;10.90;;;12.90;83.20;;;;;;6184658;23;20005;-72
2022/11/13 02:03:55;;;;;;;15.00;10.60;;;13.00;83.30;;;;;;6183202;23;20337;-72
2022/11/13 02:06:21;;;;;;;14.75;11.00;;;13.00;83.10;;;;;;6184367;23;20009;-71
2022/11/13 02:08:49;;;;;;;16.77;10.57;;;13.00;82.90;;;;;;6184412;23;20028;-72
2022/11/13 02:11:15;;;;;;;15.80;10.57;;;13.00;82.50;;;;;;6184526;23;20390;-72
2022/11/13 02:13:42;;;;;;;13.50;9.35;;;13.00;82.10;;;;;;6184411;23;20017;-72
2022/11/13 02:16:09;;;;;;;13.88;8.55;;;13.00;82.10;;;;;;6183190;23;20013;-71
2022/11/13 02:18:36;;;;;;;12.40;8.13;;;12.90;81.10;;;;;;6183176;23;20005;-72
2022/11/13 02:21:34;;;;;;;13.60;8.32;;;12.90;80.50;;;;;;6184729;23;20112;-72
2022/11/13 02:24:20;;;;;;;11.70;8.10;;;12.90;80.80;;;;;;6184782;23;20028;-72
2022/11/13 02:26:48;;;;;;;11.13;7.25;;;12.80;80.50;;;;;;6186172;23;20009;-71
2022/11/13 02:29:14;;;;;;;12.05;7.38;;;12.80;79.40;;;;;;6184500;23;20012;-72
2022/11/13 02:31:39;;;;;;;10.52;7.05;;;12.90;79.70;;;;;;6184461;23;20013;-71
2022/11/13 02:34:05;;;;;;;10.00;7.13;;;12.90;79.20;;;;;;6184589;23;20001;-72
2022/11/13 02:36:31;;;;;;;11.40;6.63;;;12.80;78.70;;;;;;6182805;23;20005;-72
2022/11/13 02:39:05;;;;;;;12.45;6.53;;;12.80;78.60;;;;;;6184830;23;20418;-71
2022/11/13 02:41:31;;;;;;;10.32;6.65;;;12.80;78.40;;;;;;6182916;23;20012;-71
2022/11/13 02:43:57;;;;;;;9.77;6.20;;;12.80;78.10;;;;;;6185264;23;20001;-71
2022/11/13 02:46:22;;;;;;;9.93;6.35;;;12.80;78.10;;;;;;6183050;23;20008;-70
2022/11/13 02:48:48;;;;;;;8.90;6.13;;;12.80;78.10;;;;;;6183183;23;20056;-72
2022/11/13 02:51:14;;;;;;;10.05;6.20;;;12.90;78.30;;;;;;6184501;23;20013;-71
2022/11/13 02:53:40;;;;;;;10.38;6.10;;;12.90;78.30;;;;;;6184834;23;19998;-71
2022/11/13 02:56:06;;;;;;;10.73;6.20;;;12.90;78.00;;;;;;6183087;23;20005;-71
2022/11/13 02:58:32;;;;;;;10.18;6.00;;;12.90;77.80;;;;;;6184531;23;20007;-72
2022/11/13 03:01:01;;;;;;;10.27;6.43;;;12.90;77.90;;;;;;6184844;23;20037;-72
2022/11/13 03:03:26;;;;;;;12.13;6.55;;;13.00;77.50;;;;;;6208248;23;20088;-72
2022/11/13 03:05:52;;;;;;;9.20;5.80;;;13.00;77.80;;;;;;6182949;23;20059;-71
2022/11/13 03:08:18;;;;;;;9.43;5.97;;;13.00;77.30;;;;;;6183081;23;20012;-71
2022/11/13 03:10:45;;;;;;;9.55;5.93;;;12.90;77.30;;;;;;6184464;23;20345;-71
2022/11/13 03:13:11;;;;;;;10.93;6.55;;;13.00;77.30;;;;;;6184586;23;20028;-71
2022/11/13 03:15:36;;;;;;;9.27;6.15;;;12.90;77.10;;;;;;6184295;23;20009;-71
2022/11/13 03:18:07;;;;;;;9.02;5.80;;;12.90;77.30;;;;;;6183827;23;20024;-72
2022/11/13 03:20:35;;;;;;;8.80;5.80;;;12.90;77.20;;;;;;6209912;23;20060;-71
2022/11/13 03:23:02;;;;;;;10.88;5.80;;;12.90;77.40;;;;;;6209697;23;20084;-71
2022/11/13 03:25:28;;;;;;;10.00;5.50;;;12.90;77.30;;;;;;6210062;23;20005;-72
2022/11/13 03:27:54;;;;;;;7.90;5.45;;;12.90;77.50;;;;;;6186384;23;20008;-71
2022/11/13 03:30:19;;;;;;;9.35;5.97;;;12.90;77.10;;;;;;6186284;23;20044;-72
2022/11/13 03:32:45;;;;;;;10.68;5.72;;;13.00;77.30;;;;;;6186215;23;20001;-71
2022/11/13 03:35:11;;;;;;;9.95;6.30;;;13.00;77.20;;;;;;6184886;23;20060;-71
2022/11/13 03:37:36;;;;;;;12.73;5.88;;;12.90;76.80;;;;;;6186415;23;20001;-71
2022/11/13 03:40:02;;;;;;;7.85;5.38;;;13.00;77.00;;;;;;6184876;23;20385;-71
2022/11/13 03:42:28;;;;;;;10.30;6.05;;;13.00;76.80;;;;;;6186299;23;20352;-72
2022/11/13 03:44:54;;;;;;;11.43;5.60;;;13.00;76.90;;;;;;6186385;23;20004;-72
2022/11/13 03:47:19;;;;;;;10.52;5.97;;;13.00;76.40;;;;;;6184848;23;20024;-71
2022/11/13 03:49:45;;;;;;;8.48;5.53;;;13.00;76.60;;;;;;6186467;23;20001;-72
2022/11/13 03:52:11;;;;;;;9.25;5.43;;;13.00;76.70;;;;;;6186427;23;20021;-71
2022/11/13 03:54:37;;;;;;;12.10;5.85;;;13.00;77.30;;;;;;6184570;23;20056;-72
2022/11/13 03:57:04;;;;;;;9.57;5.80;;;13.00;76.60;;;;;;6184469;23;20009;-70
2022/11/13 03:59:30;;;;;;;8.65;5.32;;;13.00;76.80;;;;;;6186119;23;20330;-74
2022/11/13 04:01:56;;;;;;;9.50;5.80;;;13.00;76.40;;;;;;6186962;23;20001;-72
2022/11/13 04:04:21;;;;;;;10.30;5.60;;;13.00;76.60;;;;;;6186446;23;20001;-70
2022/11/13 04:06:47;;;;;;;8.85;5.28;;;13.00;76.80;;;;;;6186114;23;20012;-72
2022/11/13 04:09:13;;;;;;;9.02;5.22;;;13.00;76.50;;;;;;6186113;23;19997;-71
2022/11/13 04:11:38;;;;;;;9.18;5.00;;;13.00;76.50;;;;;;6184511;23;20346;-72
2022/11/13 04:14:04;;;;;;;8.60;5.57;;;13.00;76.30;;;;;;6185772;23;20068;-71
2022/11/13 04:16:30;;;;;;;9.55;5.55;;;13.00;76.60;;;;;;6186233;23;20009;-73
2022/11/13 04:18:56;;;;;;;12.90;5.40;;;12.90;76.40;;;;;;6184216;23;20029;-71
2022/11/13 04:21:21;;;;;;;7.57;5.03;;;13.00;76.80;;;;;;6184099;23;20009;-70
2022/11/13 04:23:47;;;;;;;7.05;4.63;;;13.00;76.60;;;;;;6185442;23;20004;-72
2022/11/13 04:26:13;;;;;;;10.15;5.55;;;13.00;76.50;;;;;;6185565;23;20028;-72
2022/11/13 04:28:39;;;;;;;7.50;5.05;;;12.90;76.70;;;;;;6209335;23;20001;-72
2022/11/13 04:31:04;;;;;;;7.75;4.65;;;12.90;76.60;;;;;;6185604;23;20020;-71
2022/11/13 04:33:30;;;;;;;7.85;4.80;;;12.80;76.50;;;;;;6185713;23;20008;-70
2022/11/13 04:35:56;;;;;;;9.43;5.47;;;12.80;76.50;;;;;;6185660;23;20330;-71
2022/11/13 04:38:21;;;;;;;7.75;5.03;;;12.80;76.60;;;;;;6185422;23;20104;-71
2022/11/13 04:42:47;;;;;;;8.20;5.38;;;12.80;76.70;;;;;;6185425;23;19997;-71
2022/11/13 04:43:36;;;;;;;9.30;4.97;;;12.70;76.50;;;;;;6185573;23;20369;-71
2022/11/13 04:46:02;;;;;;;8.60;4.97;;;12.70;76.80;;;;;;6185787;23;19997;-71
2022/11/13 04:48:27;;;;;;;8.32;4.88;;;12.70;76.90;;;;;;6183971;23;20009;-71
2022/11/13 04:50:53;;;;;;;8.02;4.88;;;12.70;77.10;;;;;;6185581;23;20005;-72
2022/11/13 04:53:19;;;;;;;8.60;4.82;;;12.60;77.00;;;;;;6185982;23;20449;-71
2022/11/13 04:55:44;;;;;;;7.70;4.68;;;12.60;77.10;;;;;;6183955;23;20013;-71
2022/11/13 04:58:10;;;;;;;8.32;4.82;;;12.60;77.20;;;;;;6183970;23;20047;-72
2022/11/13 05:00:36;;;;;;;9.30;5.40;;;12.60;77.20;;;;;;6185431;23;20392;-71
2022/11/13 05:03:02;;;;;;;9.52;5.63;;;12.50;77.20;;;;;;6185510;23;20010;-71
2022/11/13 05:05:28;;;;;;;8.77;5.07;;;12.40;77.20;;;;;;6185523;23;20008;-70
2022/11/13 05:07:54;;;;;;;8.05;5.20;;;12.40;77.40;;;;;;6185483;23;20490;-72
2022/11/13 05:10:20;;;;;;;8.52;5.47;;;12.40;77.40;;;;;;6183520;23;20005;-72
2022/11/13 05:12:46;;;;;;;9.15;5.03;;;12.40;77.50;;;;;;6185383;23;20001;-71
2022/11/13 05:15:11;;;;;;;9.70;5.78;;;12.40;77.80;;;;;;6185125;23;20004;-73
2022/11/13 05:17:37;;;;;;;9.77;5.72;;;12.40;77.70;;;;;;6185175;23;20001;-72
2022/11/13 05:20:03;;;;;;;8.32;5.18;;;12.50;78.00;;;;;;6185262;23;20004;-72
2022/11/13 05:22:29;;;;;;;8.65;6.03;;;12.50;77.80;;;;;;6185166;23;20062;-72
2022/11/13 05:24:55;;;;;;;10.15;5.65;;;12.50;77.90;;;;;;6183530;23;20336;-72
2022/11/13 05:27:21;;;;;;;7.90;5.25;;;12.50;77.90;;;;;;6185388;23;20005;-72
2022/11/13 05:29:46;;;;;;;9.73;5.00;;;12.50;77.90;;;;;;6183488;23;20005;-73
2022/11/13 05:32:12;;;;;;;8.98;5.22;;;12.50;77.80;;;;;;6185086;23;20471;-71
2022/11/13 05:34:38;;;;;;;11.63;5.30;;;12.50;77.60;;;;;;6185134;23;20004;-72
2022/11/13 05:37:03;;;;;;;11.43;5.82;;;12.50;77.80;;;;;;6185221;23;19997;-73
2022/11/13 05:39:29;;;;;;;7.82;5.22;;;12.50;78.00;;;;;;6183441;23;20005;-72
2022/11/13 05:41:55;;;;;;;12.45;6.85;;;12.50;77.90;;;;;;6183214;23;20012;-72
2022/11/13 05:44:21;;;;;;;10.07;4.95;;;12.50;78.00;;;;;;6183369;23;20443;-71
2022/11/13 05:46:46;;;;;;;8.05;5.07;;;12.50;77.90;;;;;;6184977;23;20307;-71
2022/11/13 05:49:12;;;;;;;9.40;5.25;;;12.50;78.00;;;;;;6185060;23;20013;-71
2022/11/13 05:51:38;;;;;;;9.65;5.22;;;12.50;77.90;;;;;;6185175;23;20043;-71
2022/11/13 05:54:05;;;;;;;9.05;4.68;;;12.50;77.80;;;;;;6185044;23;20024;-71
2022/11/13 05:56:33;;;;;;;10.68;4.93;;;12.50;77.80;;;;;;6183296;23;20016;-72
2022/11/13 05:59:00;;;;;;;9.55;4.65;;;12.50;77.70;;;;;;6183208;23;20084;-72
2022/11/13 06:01:26;;;;;;;9.27;4.75;;;12.40;77.70;;;;;;6183302;23;20029;-72
2022/11/13 06:03:53;;;;;;;12.73;4.80;;;12.40;77.90;;;;;;6183304;23;20001;-72
2022/11/13 06:06:20;;;;;;;6.35;4.05;;;12.40;77.80;;;;;;6184861;23;20005;-71
2022/11/13 06:08:47;;;;;;;7.70;4.78;;;12.40;77.70;;;;;;6185259;23;19997;-72
2022/11/13 06:11:23;;;;;;;9.38;4.93;;;12.50;77.90;;;;;;6186829;23;20044;-71
2022/11/13 06:13:50;;;;;;;9.02;5.05;;;12.50;78.50;;;;;;6184634;23;20062;-72
2022/11/13 06:16:18;;;;;;;12.70;5.13;;;12.50;78.10;;;;;;6186340;23;20136;-72
2022/11/13 06:18:45;;;;;;;11.30;5.28;;;12.50;78.00;;;;;;6186741;23;20326;-72
2022/11/13 06:21:19;;;;;;;8.70;5.18;;;12.50;78.00;;;;;;6187185;23;20068;-72
2022/11/13 06:23:45;;;;;;;8.05;4.93;;;12.50;78.00;;;;;;6209859;23;20032;-72
2022/11/13 06:26:23;;;;;;;9.80;5.20;;;12.50;78.50;;;;;;6184225;23;20005;-71
2022/11/13 06:28:50;;;;;;;8.43;5.03;;;12.50;78.40;;;;;;6184972;23;20008;-72
2022/11/13 06:31:24;;;;;;;8.57;5.05;;;12.50;78.10;;;;;;6183023;23;20426;-71
2022/11/13 06:33:50;;;;;;;10.25;5.47;;;12.50;78.20;;;;;;6183113;23;20342;-72
2022/11/13 06:36:27;;;;;;;8.90;5.40;;;12.50;77.90;;;;;;6182802;23;20005;-72
2022/11/13 06:38:53;;;;;;;8.23;5.00;;;12.60;77.80;;;;;;6182935;23;20005;-71
2022/11/13 06:41:21;;;;;;;9.35;5.30;;;12.60;77.90;;;;;;6184426;23;20005;-74
2022/11/13 06:43:48;;;;;;;8.35;5.32;;;12.60;77.80;;;;;;6207884;23;20012;-72
2022/11/13 06:46:17;;;;;;;7.80;5.18;;;12.70;77.90;;;;;;6184614;23;20088;-71
2022/11/13 06:48:43;;;;;;;12.38;5.53;;;12.70;77.70;;;;;;6208077;23;20032;-73
2022/11/13 06:51:14;;;;;;;12.23;5.95;;;12.80;77.90;;;;;;6182847;23;20017;-72
2022/11/13 06:53:40;;;;;;;8.55;5.55;;;12.80;77.70;;;;;;6184260;23;20418;-72
2022/11/13 06:56:06;;;;;;;9.25;5.70;;;12.90;77.70;;;;;;6184646;23;20011;-72
2022/11/13 06:58:32;;;;;;;10.85;5.80;;;13.00;77.80;;;;;;6207832;23;20002;-72
2022/11/13 07:01:04;;;;;;;10.40;5.40;;;13.10;77.70;;;;;;6184374;23;20001;-72
2022/11/13 07:03:30;;;;;;;7.88;5.43;;;13.20;77.50;;;;;;6184632;23;20001;-72
2022/11/13 07:05:56;;;;;;;10.65;6.50;;;13.30;77.20;;;;;;6184310;23;20296;-71
2022/11/13 07:08:21;;;;;;;10.25;5.68;;;13.40;77.10;;;;;;6182697;23;20029;-73
2022/11/13 07:10:55;;;;;;;11.02;6.13;;;13.50;76.80;;;;;;6182820;23;20009;-72
2022/11/13 07:13:22;;;;;;;10.75;6.07;;;13.60;76.90;;;;;;6184276;23;20001;-71
2022/11/13 07:15:47;;;;;;;7.82;5.20;;;13.70;76.80;;;;;;6207956;23;20020;-72
2022/11/13 07:18:14;;;;;;;8.52;5.55;;;13.80;76.70;;;;;;6182808;23;20009;-72
2022/11/13 07:20:39;;;;;;;9.57;5.80;;;13.90;76.40;;;;;;6184331;23;20334;-72
2022/11/13 07:23:05;;;;;;;12.60;7.10;;;14.00;76.20;;;;;;6184428;23;20001;-73
2022/11/13 07:25:31;;;;;;;11.20;6.22;;;14.00;75.80;;;;;;6184379;23;19997;-73
2022/11/13 07:27:57;;;;;;;10.57;5.53;;;14.00;75.70;;;;;;6207790;23;20013;-72
2022/11/13 07:30:23;;;;;;;9.32;5.90;;;14.00;75.20;;;;;;6182384;23;20005;-71
2022/11/13 07:32:48;;;;;;;9.85;6.70;;;14.10;75.20;;;;;;6182809;23;20005;-72
2022/11/13 07:35:15;;;;;;;10.80;6.13;;;14.10;75.00;;;;;;6184256;23;20001;-73
2022/11/13 07:37:42;;;;;;;9.40;6.25;;;14.10;74.80;;;;;;6207481;23;20127;-73
2022/11/13 07:40:08;;;;;;;7.93;5.30;;;14.10;74.70;;;;;;6183822;23;20028;-71
2022/11/13 07:42:34;;;;;;;9.80;5.65;;;14.00;74.50;;;;;;6182326;23;20009;-72
2022/11/13 07:45:00;;;;;;;13.60;6.00;;;14.00;74.50;;;;;;6184230;23;20005;-73
2022/11/13 07:47:26;;;;;;;9.35;6.13;;;14.10;75.00;;;;;;6182747;23;20005;-72
2022/11/13 07:49:52;;;;;;;8.68;5.78;;;14.10;74.80;;;;;;6182224;23;20292;-72
2022/11/13 07:52:17;;;;;;;7.65;5.22;;;14.10;74.90;;;;;;6184115;23;20013;-73
2022/11/13 07:54:44;;;;;;;9.68;5.85;;;14.10;74.90;;;;;;6184260;23;20005;-73
2022/11/13 07:57:10;;;;;;;10.25;5.55;;;14.10;74.90;;;;;;6184019;23;20114;-72
2022/11/13 07:59:35;;;;;;;9.07;5.93;;;14.00;74.80;;;;;;6183831;23;20394;-72
2022/11/13 08:02:01;;;;;;;11.20;6.10;;;14.10;74.60;;;;;;6183810;23;20095;-72
2022/11/13 08:04:29;;;;;;;11.15;6.10;;;14.10;74.70;;;;;;6183845;23;20403;-72
2022/11/13 08:06:55;;;;;;;9.07;5.32;;;14.10;74.40;;;;;;6185274;23;20430;-71
2022/11/13 08:09:20;;;;;;;8.27;5.25;;;14.10;74.30;;;;;;6183859;23;20005;-73
2022/11/13 08:11:46;;;;;;;9.65;5.63;;;14.00;74.00;;;;;;6185145;23;20346;-74
2022/11/13 08:14:12;;;;;;;9.95;6.13;;;14.10;74.30;;;;;;6184574;23;20467;-71
2022/11/13 08:16:38;;;;;;;10.23;5.30;;;14.10;74.20;;;;;;6183655;23;20091;-73
2022/11/13 08:19:04;;;;;;;9.50;5.20;;;14.10;74.00;;;;;;6185332;23;20001;-73
2022/11/13 08:21:29;;;;;;;10.45;6.05;;;14.20;74.00;;;;;;6185394;23;20086;-70
2022/11/13 08:23:55;;;;;;;10.40;5.63;;;14.30;73.60;;;;;;6185628;23;20001;-73
2022/11/13 08:26:21;;;;;;;8.90;5.30;;;14.30;73.60;;;;;;6183459;23;20083;-71
2022/11/13 08:28:47;;;;;;;10.15;5.68;;;14.30;73.50;;;;;;6183207;23;20008;-71
2022/11/13 08:31:15;;;;;;;8.80;5.35;;;14.40;73.40;;;;;;6185101;23;20009;-71
2022/11/13 08:33:41;;;;;;;9.70;6.07;;;14.40;73.50;;;;;;6185067;23;20076;-70
2022/11/13 08:36:09;;;;;;;10.38;6.57;;;14.50;73.30;;;;;;6185257;23;20035;-71
2022/11/13 08:38:35;;;;;;;12.00;6.70;;;14.50;73.30;;;;;;6183595;23;20396;-71
2022/11/13 08:41:04;;;;;;;14.57;7.80;;;14.60;73.00;;;;;;6183525;23;20366;-72
2022/11/13 08:43:29;;;;;;;15.18;7.05;;;14.60;72.90;;;;;;6183682;23;20088;-71
2022/11/13 08:45:55;;;;;;;12.68;6.32;;;14.70;72.70;;;;;;6185153;23;20058;-72
2022/11/13 08:48:22;;;;;;;11.07;7.28;;;14.70;72.20;;;;;;6182812;23;20055;-71
2022/11/13 08:50:53;;;;;;;12.35;8.30;;;14.80;72.00;;;;;;6184708;23;20087;-73
2022/11/13 08:53:19;;;;;;;18.80;11.05;;;14.90;71.80;;;;;;6184520;23;20016;-72
2022/11/13 08:55:45;;;;;;;14.23;8.15;;;14.90;71.30;;;;;;6183247;23;20005;-71
2022/11/13 08:58:10;;;;;;;13.57;8.10;;;15.00;71.60;;;;;;6183474;23;20084;-71
2022/11/13 09:00:36;;;;;;;12.70;7.95;;;15.00;71.30;;;;;;6184063;23;20000;-68
2022/11/13 09:03:02;;;;;;;10.27;8.05;;;15.10;71.50;;;;;;6184367;23;20005;-68
2022/11/13 09:05:28;;;;;;;15.98;7.20;;;15.20;70.70;;;;;;6184435;23;20374;-71
2022/11/13 09:07:58;;;;;;;11.40;7.43;;;15.30;70.50;;;;;;6184838;23;20005;-68
2022/11/13 09:10:26;;;;;;;14.27;7.80;;;15.40;70.30;;;;;;6184447;23;20004;-68
2022/11/13 09:13:00;;;;;;;12.93;8.15;;;15.50;70.20;;;;;;6207845;23;20063;-70
2022/11/13 09:15:27;;;;;;;15.98;8.45;;;15.50;70.10;;;;;;6184184;23;20017;-69
2022/11/13 09:18:01;;;;;;;13.52;7.60;;;15.60;69.90;;;;;;6183001;23;20410;-68
2022/11/13 09:20:28;;;;;;;11.80;8.18;;;15.70;70.00;;;;;;6182473;23;20012;-68
2022/11/13 09:23:02;;;;;;;11.05;8.30;;;15.80;69.70;;;;;;6184427;23;20484;-69
2022/11/13 09:25:29;;;;;;;12.90;7.90;;;15.90;69.80;;;;;;6184486;23;20001;-72
2022/11/13 09:27:58;;;;;;;11.48;8.35;;;16.00;69.60;;;;;;6184903;23;20283;-70
2022/11/13 09:30:25;;;;;;;13.82;8.57;;;16.10;69.30;;;;;;6184312;23;20001;-71
2022/11/13 09:32:56;;;;;;;12.07;8.88;;;16.20;68.80;;;;;;6183139;23;20027;-68
2022/11/13 09:35:34;;;;;;;15.75;8.80;;;16.30;68.00;;;;;;6184961;23;20008;-69
2022/11/13 09:38:08;;;;;;;10.60;7.70;;;16.40;67.90;;;;;;6184429;23;20105;-68
2022/11/13 09:40:45;;;;;;;13.82;8.35;;;16.50;68.40;;;;;;6184498;23;19997;-69
2022/11/13 09:43:34;;;;;;;10.65;7.15;;;16.60;68.20;;;;;;6182843;23;20001;-69
2022/11/13 09:46:06;;;;;;;11.63;7.22;;;16.70;67.60;;;;;;6184590;23;20080;-68
2022/11/13 09:48:42;;;;;;;12.00;6.57;;;16.80;67.00;;;;;;6185314;23;20055;-68
2022/11/13 09:51:21;;;;;;;12.40;6.95;;;16.80;66.00;;;;;;6184246;23;20092;-67
2022/11/13 09:53:47;;;;;;;13.35;7.28;;;16.90;66.40;;;;;;6182607;23;20383;-68
2022/11/13 09:56:33;;;;;;;11.57;7.35;;;17.00;65.60;;;;;;6182760;23;20016;-67
2022/11/13 09:59:38;;;;;;;12.52;7.30;;;17.20;64.90;;;;;;6182982;23;20079;-69
2022/11/13 10:02:07;;;;;;;9.77;6.57;;;17.20;65.20;;;;;;6183979;23;20008;-69
2022/11/13 10:04:52;;;;;;;8.48;5.40;;;17.30;64.40;;;;;;6182158;23;20005;-68
2022/11/13 10:07:23;;;;;;;10.68;7.45;;;17.50;64.30;;;;;;6181995;23;20016;-70
2022/11/13 10:10:36;;;;;;;11.00;7.65;;;17.60;63.70;;;;;;6181740;23;20004;-69
2022/11/13 10:13:04;;;;;;;10.88;6.05;;;17.60;62.70;;;;;;6091171;23;20047;-72
2022/11/13 10:15:30;;;;;;;10.07;5.25;;;17.80;62.90;;;;;;6166624;23;20068;-71
2022/11/13 10:18:09;;;;;;;8.50;4.47;;;17.80;62.10;;;;;;6181027;23;20025;-71
2022/11/13 10:20:40;;;;;;;8.07;5.07;;;17.90;61.60;;;;;;6184529;23;20311;-70
2022/11/13 10:23:19;;;;;;;8.75;5.28;;;18.00;61.40;;;;;;6184977;23;19998;-70
2022/11/13 10:25:45;;;;;;;8.75;5.03;;;18.10;61.10;;;;;;6182922;23;20403;-72
2022/11/13 10:28:15;;;;;;;8.50;5.22;;;18.20;60.70;;;;;;6182905;23;20028;-72
2022/11/13 10:30:41;;;;;;;9.93;5.30;;;18.30;60.00;;;;;;6184377;23;20005;-70
2022/11/13 10:33:12;;;;;;;9.80;5.18;;;18.30;59.90;;;;;;6184322;23;20457;-71
2022/11/13 10:35:40;;;;;;;10.07;5.38;;;18.40;59.50;;;;;;6184454;23;20064;-70
2022/11/13 10:38:43;;;;;;;7.65;5.07;;;18.40;59.50;;;;;;6183078;23;20005;-71
2022/11/13 10:41:14;;;;;;;8.70;4.97;;;18.50;58.60;;;;;;6171775;23;20008;-71
2022/11/13 10:44:03;;;;;;;9.57;4.43;;;18.60;58.20;;;;;;6182693;23;20009;-71
2022/11/13 10:46:30;;;;;;;7.03;4.47;;;18.70;58.80;;;;;;6184399;23;20016;-72
2022/11/13 10:48:57;;;;;;;9.77;4.75;;;18.80;57.70;;;;;;6182406;23;20001;-72
2022/11/13 10:51:33;;;;;;;9.45;4.82;;;18.90;57.00;;;;;;6182484;23;20036;-70
2022/11/13 10:53:59;;;;;;;8.27;4.55;;;18.90;57.10;;;;;;6184355;23;20333;-71
2022/11/13 10:56:30;;;;;;;8.10;4.07;;;19.00;57.30;;;;;;6184128;23;20065;-70
2022/11/13 10:58:59;;;;;;;7.93;4.70;;;19.10;57.20;;;;;;6184360;23;19997;-72
2022/11/13 11:01:25;;;;;;;8.45;4.85;;;19.20;57.00;;;;;;6184201;23;20005;-71
2022/11/13 11:03:51;;;;;;;8.77;5.25;;;19.30;57.00;;;;;;6182502;23;20012;-71
2022/11/13 11:06:16;;;;;;;7.18;4.82;;;19.30;56.60;;;;;;6182640;23;20311;-71
2022/11/13 11:08:42;;;;;;;6.68;4.40;;;19.40;56.50;;;;;;6182449;23;20032;-71
2022/11/13 11:14:28;;;;;;;10.05;4.43;;;19.60;56.60;;;;;;6184101;23;20027;-71
2022/11/13 11:16:55;;;;;;;7.28;4.78;;;19.60;57.20;;;;;;6182678;23;20005;-71
2022/11/13 11:19:25;;;;;;;8.05;4.60;;;19.70;56.20;;;;;;6182604;23;20035;-71
2022/11/13 11:21:56;;;;;;;9.85;4.38;;;19.70;56.40;;;;;;6207992;23;20012;-71
2022/11/13 11:24:30;;;;;;;8.27;4.70;;;19.80;56.40;;;;;;6182544;23;20032;-71
2022/11/13 11:27:15;;;;;;;7.95;4.50;;;19.80;55.80;;;;;;6182707;23;20009;-71
2022/11/13 11:30:03;;;;;;;9.07;4.70;;;19.80;55.40;;;;;;6184624;23;20093;-71
2022/11/13 11:33:01;;;;;;;8.32;4.22;;;19.80;54.90;;;;;;6182480;23;20013;-71
2022/11/13 11:35:42;;;;;;;9.52;4.80;;;19.90;55.30;;;;;;6138223;23;20021;-71
2022/11/13 11:38:11;;;;;;;9.27;4.72;;;19.80;55.00;;;;;;6182512;23;20043;-71
2022/11/13 11:40:44;;;;;;;8.32;4.80;;;19.70;55.40;;;;;;6185477;23;19997;-71
2022/11/13 11:43:34;;;;;;;12.07;5.10;;;19.50;55.10;;;;;;6209446;23;20115;-72
2022/11/13 11:46:00;;;;;;;10.52;4.88;;;19.30;55.70;;;;;;6186241;23;20001;-70
2022/11/13 11:48:31;;;;;;;6.97;4.55;;;19.20;56.20;;;;;;6186205;23;20079;-71
2022/11/13 11:51:02;;;;;;;7.30;4.45;;;19.20;56.00;;;;;;6186271;23;20311;-72
2022/11/13 11:53:34;;;;;;;10.15;4.65;;;19.30;56.30;;;;;;6186231;23;20008;-72
2022/11/13 11:56:14;;;;;;;7.70;4.25;;;19.40;55.70;;;;;;6184401;23;20005;-72
2022/11/13 11:58:49;;;;;;;10.70;4.80;;;19.50;55.80;;;;;;6185848;23;20005;-71
2022/11/13 12:01:21;;;;;;;6.82;4.45;;;19.60;55.10;;;;;;6184224;23;20338;-72
2022/11/13 12:03:49;;;;;;;10.00;4.95;;;19.60;55.80;;;;;;6184547;23;20283;-72
2022/11/13 12:06:27;;;;;;;9.65;4.65;;;19.50;56.10;;;;;;6186007;23;20001;-71
2022/11/13 12:09:26;;;;;;;6.47;4.00;;;19.40;55.80;;;;;;6185903;23;20005;-71
2022/11/13 12:12:18;;;;;;;5.85;3.88;;;19.30;55.30;;;;;;6184200;23;20017;-72
2022/11/13 12:15:08;;;;;;;6.85;4.28;;;19.30;55.50;;;;;;6185500;23;20121;-70
2022/11/13 12:18:01;;;;;;;6.60;4.63;;;19.30;55.30;;;;;;6183823;23;20029;-71
2022/11/13 12:20:30;;;;;;;8.85;4.45;;;19.20;55.40;;;;;;6184344;23;20103;-71
2022/11/13 12:23:14;;;;;;;6.68;4.38;;;19.20;55.90;;;;;;6185724;23;19997;-72
2022/11/13 12:25:52;;;;;;;6.45;4.25;;;19.20;55.90;;;;;;6185641;23;20012;-71
2022/11/13 12:28:27;;;;;;;7.53;4.57;;;19.20;55.90;;;;;;6184134;23;20013;-71
2022/11/13 12:31:08;;;;;;;10.90;4.70;;;19.10;56.00;;;;;;6185143;23;20477;-71
2022/11/13 12:33:46;;;;;;;9.70;5.10;;;19.00;56.40;;;;;;6185145;23;20009;-71
2022/11/13 12:36:12;;;;;;;7.88;4.43;;;19.00;56.10;;;;;;6184636;23;20000;-71
2022/11/13 12:38:53;;;;;;;7.25;4.38;;;19.10;55.50;;;;;;6209069;23;20009;-71
2022/11/13 12:41:44;;;;;;;5.88;4.05;;;19.20;55.50;;;;;;6185652;23;20001;-74
2022/11/13 12:44:26;;;;;;;5.93;3.85;;;19.20;55.10;;;;;;6183805;23;20035;-72
2022/11/13 12:46:53;;;;;;;6.85;4.07;;;19.10;55.50;;;;;;6208416;23;20007;-68
2022/11/13 12:49:21;;;;;;;7.35;4.25;;;19.00;55.60;;;;;;6185152;23;20005;-73
2022/11/13 12:52:01;;;;;;;6.95;4.45;;;19.00;56.20;;;;;;6184569;23;20013;-71
2022/11/13 12:54:32;;;;;;;9.32;4.05;;;18.90;56.10;;;;;;6183264;23;20002;-71